Time;durP1;ratioP1;P1;durP2;ratioP2;P2;SDS_P1;SDS_P2;PMS_P1;PMS_P2;Temp;Humidity;BMP_temperature;BMP_pressure;BME280_temperature;BME280_humidity;BME280_pressure;Samples;Min_cycle;Max_cycle;Signal;HPM_P1;HPM_P2
2021/07/16 00:01:34;;;;;;;26.67;11.20;;;18.60;99.90;;;;;;5073746;28;20035;-69
2021/07/16 00:04:00;;;;;;;28.45;10.27;;;18.60;99.90;;;;;;5073587;28;20025;-69
2021/07/16 00:06:26;;;;;;;30.25;11.13;;;18.60;99.90;;;;;;5055429;28;20029;-69
2021/07/16 00:08:51;;;;;;;23.50;10.48;;;18.60;99.90;;;;;;5073380;28;20044;-70
2021/07/16 00:11:17;;;;;;;26.65;10.93;;;18.60;99.90;;;;;;5073650;28;20043;-69
2021/07/16 00:13:42;;;;;;;21.25;10.25;;;18.60;99.90;;;;;;5073935;28;20035;-69
2021/07/16 00:16:08;;;;;;;24.55;10.60;;;18.50;99.90;;;;;;5072664;28;20024;-70
2021/07/16 00:18:34;;;;;;;20.83;10.30;;;18.50;99.90;;;;;;5073842;28;20012;-69
2021/07/16 00:21:02;;;;;;;21.02;10.65;;;18.50;99.90;;;;;;5073866;28;20024;-69
2021/07/16 00:23:28;;;;;;;21.92;10.43;;;18.50;99.90;;;;;;5073866;28;20021;-69
2021/07/16 00:25:54;;;;;;;18.02;10.13;;;18.50;99.90;;;;;;5072672;28;20020;-69
2021/07/16 00:28:20;;;;;;;23.13;10.68;;;18.50;99.90;;;;;;5073808;28;20024;-69
2021/07/16 00:30:47;;;;;;;24.90;10.52;;;18.40;99.90;;;;;;5071917;28;20558;-70
2021/07/16 00:33:13;;;;;;;24.13;10.43;;;18.40;99.90;;;;;;5073688;28;20035;-69
2021/07/16 00:35:38;;;;;;;23.25;10.30;;;18.40;99.90;;;;;;5073445;28;20378;-70
2021/07/16 00:38:04;;;;;;;19.45;10.15;;;18.40;99.90;;;;;;5073652;28;20119;-70
2021/07/16 00:40:29;;;;;;;21.98;10.10;;;18.30;99.90;;;;;;5073384;28;20021;-69
2021/07/16 00:42:55;;;;;;;24.75;10.85;;;18.30;99.90;;;;;;5073038;28;20024;-69
2021/07/16 00:45:22;;;;;;;26.10;11.27;;;18.30;99.90;;;;;;5073589;28;20090;-70
2021/07/16 00:47:48;;;;;;;25.80;10.27;;;18.20;99.90;;;;;;5072190;28;20021;-69
2021/07/16 00:50:20;;;;;;;21.83;9.95;;;18.30;99.90;;;;;;5072919;28;20027;-70
2021/07/16 00:52:46;;;;;;;22.45;9.63;;;18.30;99.90;;;;;;5073553;28;20020;-70
2021/07/16 00:55:13;;;;;;;22.73;10.70;;;18.30;99.90;;;;;;5073520;28;20021;-69
2021/07/16 00:57:39;;;;;;;20.02;9.80;;;18.30;99.90;;;;;;5073508;28;20024;-70
2021/07/16 01:00:07;;;;;;;25.13;10.60;;;18.30;99.90;;;;;;5072896;28;20032;-70
2021/07/16 01:02:33;;;;;;;27.58;12.15;;;18.30;99.90;;;;;;5073410;28;20034;-70
2021/07/16 01:04:58;;;;;;;25.88;11.00;;;18.20;99.90;;;;;;5073406;28;20035;-70
2021/07/16 01:07:24;;;;;;;24.75;9.95;;;18.10;99.90;;;;;;5073102;28;20495;-70
2021/07/16 01:09:51;;;;;;;28.42;11.38;;;18.10;99.90;;;;;;5072703;28;20124;-70
2021/07/16 01:12:18;;;;;;;27.63;11.18;;;18.10;99.90;;;;;;5073320;28;20013;-70
2021/07/16 01:14:44;;;;;;;27.75;11.13;;;18.10;99.90;;;;;;5073316;28;20025;-70
2021/07/16 01:17:10;;;;;;;26.25;10.98;;;18.10;99.90;;;;;;5075333;28;20029;-70
2021/07/16 01:20:00;;;;;;;24.00;11.02;;;18.10;99.90;;;;;;5058495;28;20119;-70
2021/07/16 01:22:28;;;;;;;21.35;11.38;;;18.00;99.90;;;;;;5075779;28;20438;-70
2021/07/16 01:24:55;;;;;;;30.77;10.65;;;18.00;99.90;;;;;;5076531;28;20040;-70
2021/07/16 01:27:21;;;;;;;35.15;10.18;;;18.00;99.90;;;;;;5076494;28;20485;-70
2021/07/16 01:29:48;;;;;;;25.33;11.20;;;18.00;99.90;;;;;;5075033;28;20032;-70
2021/07/16 01:32:16;;;;;;;21.73;10.88;;;18.10;99.90;;;;;;5074918;28;20031;-70
2021/07/16 01:34:43;;;;;;;31.73;10.65;;;18.10;99.90;;;;;;5076675;28;20048;-70
2021/07/16 01:37:09;;;;;;;24.00;10.40;;;18.00;99.90;;;;;;5076600;28;20024;-70
2021/07/16 01:39:35;;;;;;;25.75;11.10;;;18.00;99.90;;;;;;5076281;28;20390;-70
2021/07/16 01:42:06;;;;;;;27.38;10.43;;;17.90;99.90;;;;;;5076475;28;20028;-70
2021/07/16 01:44:32;;;;;;;27.40;10.32;;;17.80;99.90;;;;;;5076474;28;20047;-69
2021/07/16 01:46:58;;;;;;;29.00;10.65;;;17.70;99.90;;;;;;5076455;28;20547;-69
2021/07/16 01:49:24;;;;;;;24.10;10.93;;;17.80;99.90;;;;;;5075135;28;20086;-70
2021/07/16 01:51:50;;;;;;;30.30;10.18;;;17.80;99.90;;;;;;5076042;28;20032;-69
2021/07/16 01:54:15;;;;;;;25.15;10.00;;;17.80;99.90;;;;;;5074568;28;20032;-69
2021/07/16 01:56:41;;;;;;;25.70;10.10;;;17.80;99.90;;;;;;5076267;28;20075;-70
2021/07/16 01:59:07;;;;;;;22.60;9.60;;;17.70;99.90;;;;;;5076221;28;20032;-70
2021/07/16 02:01:32;;;;;;;24.55;9.70;;;17.80;99.90;;;;;;5076162;28;20036;-70
2021/07/16 02:03:58;;;;;;;26.73;9.50;;;17.80;99.90;;;;;;5076095;28;20347;-70
2021/07/16 02:06:23;;;;;;;22.30;9.70;;;17.70;99.90;;;;;;5075486;28;20032;-70
2021/07/16 02:08:49;;;;;;;24.63;9.35;;;17.70;99.90;;;;;;5075467;28;20101;-70
2021/07/16 02:11:15;;;;;;;27.08;10.50;;;17.70;99.90;;;;;;5075470;28;20073;-70
2021/07/16 02:13:41;;;;;;;30.90;10.38;;;17.80;99.90;;;;;;5075707;28;20013;-70
2021/07/16 02:16:07;;;;;;;27.02;10.50;;;17.80;99.90;;;;;;5073783;28;20177;-70
2021/07/16 02:18:33;;;;;;;25.38;10.20;;;17.70;99.90;;;;;;5075361;28;20025;-70
2021/07/16 02:20:59;;;;;;;24.35;9.65;;;17.70;99.90;;;;;;5075771;28;20108;-70
2021/07/16 02:23:27;;;;;;;26.00;10.32;;;17.70;99.90;;;;;;5075719;28;20036;-70
2021/07/16 02:25:53;;;;;;;30.13;10.00;;;17.70;99.90;;;;;;5074248;28;20063;-70
2021/07/16 02:28:24;;;;;;;23.33;10.27;;;17.60;99.90;;;;;;5075050;28;20407;-70
2021/07/16 02:30:50;;;;;;;22.77;9.77;;;17.60;99.90;;;;;;5075506;28;20020;-70
2021/07/16 02:33:17;;;;;;;20.00;10.27;;;17.60;99.90;;;;;;5075189;28;20016;-70
2021/07/16 02:35:44;;;;;;;22.55;9.73;;;17.60;99.90;;;;;;5075171;28;20020;-70
2021/07/16 02:38:10;;;;;;;25.92;10.20;;;17.60;99.90;;;;;;5074851;28;20027;-70
2021/07/16 02:40:36;;;;;;;22.33;9.20;;;17.60;99.90;;;;;;5074105;28;20025;-70
2021/07/16 02:43:02;;;;;;;24.10;9.13;;;17.50;99.90;;;;;;5073881;28;20122;-70
2021/07/16 02:45:28;;;;;;;26.50;9.35;;;17.50;99.90;;;;;;5075256;28;20030;-70
2021/07/16 02:47:54;;;;;;;24.35;9.82;;;17.60;99.90;;;;;;5075211;28;20028;-70
2021/07/16 02:50:27;;;;;;;19.83;9.95;;;17.70;99.90;;;;;;5074621;28;20404;-70
2021/07/16 02:52:53;;;;;;;29.13;10.38;;;17.70;99.90;;;;;;5073303;28;20066;-70
2021/07/16 02:55:20;;;;;;;20.98;9.75;;;17.60;99.90;;;;;;5075097;28;20078;-70
2021/07/16 02:57:46;;;;;;;20.45;9.93;;;17.50;99.90;;;;;;5074710;28;20021;-70
2021/07/16 03:00:15;;;;;;;26.80;10.80;;;17.50;99.90;;;;;;5074644;28;20385;-70
2021/07/16 03:02:43;;;;;;;29.38;10.50;;;17.50;99.90;;;;;;5074922;28;20020;-70
2021/07/16 03:05:12;;;;;;;22.77;11.27;;;17.50;99.90;;;;;;5073085;28;20051;-70
2021/07/16 03:07:38;;;;;;;19.58;9.07;;;17.60;99.90;;;;;;5075205;28;20077;-69
2021/07/16 03:10:07;;;;;;;24.80;11.20;;;17.50;99.90;;;;;;5073940;28;20044;-70
2021/07/16 03:12:33;;;;;;;19.30;10.35;;;17.60;99.90;;;;;;5073684;28;20382;-70
2021/07/16 03:14:59;;;;;;;26.05;10.43;;;17.50;99.90;;;;;;5073726;28;20078;-70
2021/07/16 03:17:24;;;;;;;21.58;10.77;;;17.50;99.90;;;;;;5074659;28;20024;-70
2021/07/16 03:19:50;;;;;;;21.45;10.63;;;17.40;99.90;;;;;;5074593;28;20044;-70
2021/07/16 03:22:15;;;;;;;23.00;10.63;;;17.40;99.90;;;;;;5073541;28;20060;-70
2021/07/16 03:24:41;;;;;;;19.63;10.57;;;17.40;99.90;;;;;;5074484;28;20096;-70
2021/07/16 03:27:06;;;;;;;26.65;10.45;;;17.40;99.90;;;;;;5073013;28;20086;-70
2021/07/16 03:29:32;;;;;;;22.88;10.63;;;17.30;99.90;;;;;;5073843;28;20055;-70
2021/07/16 03:31:57;;;;;;;20.85;9.77;;;17.20;99.90;;;;;;5074383;28;20020;-70
2021/07/16 03:34:23;;;;;;;23.45;11.18;;;17.30;99.90;;;;;;5073190;28;20024;-70
2021/07/16 03:36:48;;;;;;;22.40;10.32;;;17.20;99.90;;;;;;5074357;28;20028;-69
2021/07/16 03:39:14;;;;;;;17.65;10.10;;;17.30;99.90;;;;;;5073655;28;20469;-70
2021/07/16 03:41:40;;;;;;;19.17;10.32;;;17.20;99.90;;;;;;5073995;28;20025;-70
2021/07/16 03:44:05;;;;;;;25.23;10.77;;;17.20;99.90;;;;;;5072448;28;20028;-69
2021/07/16 03:46:31;;;;;;;20.10;10.55;;;17.20;99.90;;;;;;5074229;28;20370;-70
2021/07/16 03:48:56;;;;;;;25.25;11.50;;;17.20;99.90;;;;;;5072322;28;20118;-70
2021/07/16 03:51:23;;;;;;;18.77;11.57;;;17.20;99.90;;;;;;5074195;28;20025;-69
2021/07/16 03:53:48;;;;;;;25.38;12.15;;;17.10;99.90;;;;;;5073829;28;20070;-70
2021/07/16 03:56:14;;;;;;;22.33;11.35;;;17.10;99.90;;;;;;5073845;28;20025;-70
2021/07/16 03:58:41;;;;;;;26.50;11.50;;;17.20;99.90;;;;;;5074091;28;20020;-70
2021/07/16 04:01:06;;;;;;;30.25;12.00;;;17.20;99.90;;;;;;5074021;28;20373;-70
2021/07/16 04:03:32;;;;;;;22.45;11.30;;;17.20;99.90;;;;;;5072475;28;20218;-70
2021/07/16 04:05:57;;;;;;;22.20;12.10;;;17.20;99.90;;;;;;5073729;28;20077;-70
2021/07/16 04:08:23;;;;;;;21.75;11.20;;;17.20;99.90;;;;;;5073679;28;20039;-70
2021/07/16 04:10:49;;;;;;;24.88;11.65;;;17.10;99.90;;;;;;5072756;28;20021;-70
2021/07/16 04:13:15;;;;;;;22.63;10.85;;;17.10;99.90;;;;;;5073897;28;20475;-70
2021/07/16 04:15:42;;;;;;;17.95;10.30;;;17.20;99.90;;;;;;5072476;28;20466;-70
2021/07/16 04:18:09;;;;;;;20.02;10.77;;;17.10;99.90;;;;;;5073883;28;20143;-70
2021/07/16 04:20:36;;;;;;;21.80;11.25;;;17.20;99.90;;;;;;5072152;28;20036;-70
2021/07/16 04:23:03;;;;;;;16.85;10.65;;;17.20;99.90;;;;;;5073837;28;20017;-70
2021/07/16 04:25:29;;;;;;;16.70;10.60;;;17.20;99.90;;;;;;5073499;28;20035;-70
2021/07/16 04:27:57;;;;;;;20.38;10.25;;;17.20;99.90;;;;;;5073460;28;20099;-70
2021/07/16 04:30:24;;;;;;;16.73;10.35;;;17.20;99.90;;;;;;5073674;28;20539;-70
2021/07/16 04:32:53;;;;;;;19.15;10.00;;;17.20;99.90;;;;;;5073760;28;20454;-70
2021/07/16 04:35:18;;;;;;;16.88;9.88;;;17.20;99.90;;;;;;5073696;28;20025;-70
2021/07/16 04:37:45;;;;;;;21.80;10.18;;;17.20;99.90;;;;;;5071917;28;20386;-70
2021/07/16 04:40:13;;;;;;;17.30;9.35;;;17.20;99.90;;;;;;5073690;28;20036;-70
2021/07/16 04:42:39;;;;;;;22.33;9.90;;;17.20;99.90;;;;;;5073382;28;20048;-70
2021/07/16 04:45:05;;;;;;;17.95;9.52;;;17.10;99.90;;;;;;5073623;28;20032;-70
2021/07/16 04:47:31;;;;;;;21.48;10.45;;;17.10;99.90;;;;;;5073338;28;20020;-70
2021/07/16 04:49:56;;;;;;;20.77;10.52;;;17.20;99.90;;;;;;5073779;28;20034;-70
2021/07/16 04:52:23;;;;;;;19.20;9.70;;;17.20;99.90;;;;;;5075500;28;20515;-70
2021/07/16 04:54:48;;;;;;;20.02;10.32;;;17.20;99.90;;;;;;5076155;28;20128;-70
2021/07/16 04:57:14;;;;;;;18.20;9.93;;;17.20;99.90;;;;;;5076791;28;20510;-69
2021/07/16 04:59:39;;;;;;;24.48;11.30;;;17.30;99.90;;;;;;5076757;28;20033;-70
2021/07/16 05:02:06;;;;;;;27.10;10.88;;;17.30;99.90;;;;;;5076683;28;20035;-70
2021/07/16 05:04:32;;;;;;;24.00;10.85;;;17.30;99.90;;;;;;5077213;28;20103;-69
2021/07/16 05:06:58;;;;;;;27.17;12.40;;;17.30;99.90;;;;;;5076885;28;20122;-70
2021/07/16 05:09:23;;;;;;;29.05;11.38;;;17.20;99.90;;;;;;5076544;28;20045;-70
2021/07/16 05:11:50;;;;;;;27.83;12.10;;;17.30;99.90;;;;;;5076495;28;20069;-69
2021/07/16 05:14:16;;;;;;;25.52;11.88;;;17.30;99.90;;;;;;5076711;28;20103;-70
2021/07/16 05:16:42;;;;;;;24.95;11.18;;;17.40;99.90;;;;;;5075165;28;20546;-70
2021/07/16 05:19:08;;;;;;;24.83;11.73;;;17.40;99.90;;;;;;5076910;28;20079;-70
2021/07/16 05:21:33;;;;;;;31.15;11.60;;;17.40;99.90;;;;;;5076911;28;20058;-69
2021/07/16 05:24:00;;;;;;;30.33;11.13;;;17.40;99.90;;;;;;5076274;28;20037;-70
2021/07/16 05:26:26;;;;;;;27.33;12.20;;;17.30;99.90;;;;;;5076251;28;20025;-70
2021/07/16 05:28:51;;;;;;;28.73;11.38;;;17.30;99.90;;;;;;5075572;28;20025;-70
2021/07/16 05:31:18;;;;;;;25.98;10.93;;;17.30;99.90;;;;;;5076718;28;20024;-70
2021/07/16 05:33:44;;;;;;;26.98;11.73;;;17.30;99.90;;;;;;5076663;28;20509;-70
2021/07/16 05:36:10;;;;;;;29.13;11.93;;;17.40;99.90;;;;;;5076350;28;20420;-69
2021/07/16 05:38:37;;;;;;;36.00;12.05;;;17.40;99.90;;;;;;5076580;28;20074;-70
2021/07/16 05:41:04;;;;;;;28.50;10.90;;;17.40;99.90;;;;;;5075158;28;20024;-70
2021/07/16 05:43:29;;;;;;;32.97;12.20;;;17.30;99.90;;;;;;5076433;28;20024;-70
2021/07/16 05:45:55;;;;;;;33.70;10.65;;;17.30;99.90;;;;;;5075014;28;20110;-69
2021/07/16 05:48:21;;;;;;;32.30;9.70;;;17.30;99.90;;;;;;5076389;28;20395;-70
2021/07/16 05:50:47;;;;;;;29.10;10.45;;;17.40;99.90;;;;;;5075260;28;20063;-70
2021/07/16 05:53:14;;;;;;;27.75;10.35;;;17.60;99.90;;;;;;5076296;28;20060;-69
2021/07/16 05:55:40;;;;;;;32.67;9.63;;;17.70;99.90;;;;;;5076024;28;20017;-70
2021/07/16 05:58:05;;;;;;;23.05;9.80;;;17.80;99.90;;;;;;5075209;28;20032;-70
2021/07/16 06:00:31;;;;;;;28.38;9.23;;;17.90;99.90;;;;;;5076198;28;20025;-70
2021/07/16 06:02:57;;;;;;;29.50;9.48;;;18.00;99.90;;;;;;5075517;28;20104;-69
2021/07/16 06:05:23;;;;;;;21.40;9.45;;;18.10;99.90;;;;;;5076006;28;20056;-70
2021/07/16 06:07:48;;;;;;;27.45;9.63;;;18.20;99.90;;;;;;5075755;28;20040;-70
2021/07/16 06:10:15;;;;;;;21.38;8.32;;;18.20;99.90;;;;;;5073955;28;20052;-70
2021/07/16 06:12:41;;;;;;;21.73;8.88;;;18.10;99.90;;;;;;5075162;28;20020;-70
2021/07/16 06:15:08;;;;;;;26.50;8.50;;;18.10;99.90;;;;;;5075533;28;20048;-70
2021/07/16 06:17:33;;;;;;;24.15;9.25;;;18.20;99.90;;;;;;5075849;28;20103;-70
2021/07/16 06:20:00;;;;;;;24.10;9.15;;;18.20;99.90;;;;;;5075102;28;20146;-70
2021/07/16 06:22:25;;;;;;;32.05;9.95;;;18.10;99.90;;;;;;5072541;28;20035;-70
2021/07/16 06:24:52;;;;;;;26.77;9.95;;;18.00;99.90;;;;;;5074193;28;20390;-69
2021/07/16 06:27:18;;;;;;;28.90;8.57;;;18.00;99.90;;;;;;5075016;28;20040;-70
2021/07/16 06:29:43;;;;;;;22.63;8.95;;;18.10;99.90;;;;;;5073653;28;20036;-70
2021/07/16 06:32:09;;;;;;;19.63;9.25;;;18.10;99.90;;;;;;5074403;28;20485;-70
2021/07/16 06:34:35;;;;;;;30.75;9.75;;;18.00;99.90;;;;;;5074728;28;20492;-70
2021/07/16 06:37:01;;;;;;;26.52;9.27;;;18.10;99.90;;;;;;5074262;28;20029;-70
2021/07/16 06:39:26;;;;;;;25.08;9.45;;;17.90;99.90;;;;;;5074991;28;20509;-69
2021/07/16 06:41:52;;;;;;;22.38;8.77;;;18.10;99.90;;;;;;5069480;28;20045;-70
2021/07/16 06:44:17;;;;;;;24.48;8.85;;;18.10;99.90;;;;;;5069168;28;20139;-70
2021/07/16 06:46:44;;;;;;;29.15;9.75;;;18.30;99.90;;;;;;5069213;28;20044;-70
2021/07/16 06:49:10;;;;;;;25.67;8.82;;;18.30;99.90;;;;;;5071552;28;20036;-70
2021/07/16 06:51:35;;;;;;;24.67;9.45;;;18.30;99.90;;;;;;5072494;28;20074;-70
2021/07/16 06:54:02;;;;;;;27.35;9.18;;;18.00;99.90;;;;;;5060284;28;20051;-70
2021/07/16 06:56:29;;;;;;;23.38;9.05;;;17.90;99.90;;;;;;5068196;28;20035;-70
2021/07/16 06:58:54;;;;;;;20.65;9.25;;;18.00;99.90;;;;;;5073507;28;20077;-70
2021/07/16 07:01:20;;;;;;;27.90;10.27;;;18.00;99.90;;;;;;5060957;28;20029;-70
2021/07/16 07:03:46;;;;;;;28.77;11.85;;;18.00;99.90;;;;;;5070774;28;20020;-70
2021/07/16 07:06:12;;;;;;;28.88;13.60;;;18.00;99.90;;;;;;5060384;28;20528;-70
2021/07/16 07:08:38;;;;;;;34.50;13.00;;;17.90;99.90;;;;;;5094692;28;20127;-71
2021/07/16 07:11:06;;;;;;;41.05;13.18;;;17.80;99.90;;;;;;5062022;28;20087;-70
2021/07/16 07:13:32;;;;;;;37.65;13.23;;;17.80;99.90;;;;;;5083320;28;20490;-70
2021/07/16 07:15:57;;;;;;;27.55;12.75;;;17.80;99.90;;;;;;5066726;28;20121;-70
2021/07/16 07:18:23;;;;;;;28.92;12.68;;;17.90;99.90;;;;;;5073465;28;20051;-70
2021/07/16 07:20:49;;;;;;;31.17;12.95;;;18.00;99.90;;;;;;5072053;28;20074;-70
2021/07/16 07:23:14;;;;;;;32.00;12.98;;;17.90;99.90;;;;;;5072620;28;20046;-70
2021/07/16 07:25:40;;;;;;;29.08;12.68;;;17.90;99.90;;;;;;5052370;28;20029;-70
2021/07/16 07:28:06;;;;;;;36.90;12.25;;;18.10;99.90;;;;;;5061684;28;20039;-70
2021/07/16 07:30:31;;;;;;;29.08;11.85;;;18.20;99.90;;;;;;5071885;28;20037;-70
2021/07/16 07:32:57;;;;;;;24.38;11.68;;;18.30;99.90;;;;;;5073710;28;20027;-70
2021/07/16 07:35:22;;;;;;;29.27;11.80;;;18.50;99.90;;;;;;5071681;28;20028;-70
2021/07/16 07:37:49;;;;;;;30.25;11.75;;;18.70;99.90;;;;;;5072471;28;20024;-70
2021/07/16 07:40:17;;;;;;;30.23;11.40;;;18.80;99.90;;;;;;5071774;28;20119;-70
2021/07/16 07:42:44;;;;;;;22.73;10.77;;;18.80;99.90;;;;;;5072264;28;20016;-70
2021/07/16 07:45:10;;;;;;;28.77;12.30;;;18.60;99.90;;;;;;5064965;28;20040;-70
2021/07/16 07:47:36;;;;;;;27.38;11.73;;;18.70;99.90;;;;;;5072524;28;20024;-70
2021/07/16 07:50:06;;;;;;;28.35;11.60;;;18.80;99.90;;;;;;5069449;28;20024;-70
2021/07/16 07:52:32;;;;;;;36.22;12.05;;;18.70;99.90;;;;;;5065241;28;20115;-70
2021/07/16 07:54:57;;;;;;;22.25;10.88;;;18.80;99.90;;;;;;5071435;28;20048;-70
2021/07/16 07:57:23;;;;;;;28.88;12.10;;;18.80;99.90;;;;;;5071741;28;20025;-70
2021/07/16 07:59:49;;;;;;;26.75;12.45;;;18.90;99.90;;;;;;5073354;28;20500;-70
2021/07/16 08:02:14;;;;;;;31.23;12.52;;;18.70;99.90;;;;;;5064650;28;20028;-70
2021/07/16 08:04:41;;;;;;;24.42;12.43;;;18.60;99.90;;;;;;5101074;28;20033;-70
2021/07/16 08:07:07;;;;;;;36.38;12.77;;;18.50;99.90;;;;;;5072029;28;20060;-70
2021/07/16 08:09:32;;;;;;;35.30;13.18;;;18.60;99.90;;;;;;5073113;28;20052;-70
2021/07/16 08:11:59;;;;;;;24.70;12.07;;;18.50;99.90;;;;;;5056739;28;20029;-70
2021/07/16 08:14:25;;;;;;;35.28;12.63;;;18.40;99.90;;;;;;5085647;28;20390;-70
2021/07/16 08:16:51;;;;;;;38.38;12.43;;;18.40;99.90;;;;;;5066428;28;20032;-70
2021/07/16 08:19:17;;;;;;;28.30;12.93;;;18.50;99.90;;;;;;5063062;28;20047;-70
2021/07/16 08:21:45;;;;;;;27.35;12.95;;;18.40;99.90;;;;;;5071630;28;20029;-70
2021/07/16 08:24:11;;;;;;;32.38;12.80;;;18.50;99.90;;;;;;5054104;28;20530;-70
2021/07/16 08:26:36;;;;;;;29.70;13.35;;;18.50;99.90;;;;;;5097990;28;20131;-70
2021/07/16 08:29:02;;;;;;;28.33;11.60;;;18.50;99.90;;;;;;5077724;28;20040;-70
2021/07/16 08:31:27;;;;;;;26.30;12.30;;;18.60;99.90;;;;;;5066256;28;20074;-70
2021/07/16 08:33:53;;;;;;;27.55;11.55;;;18.70;99.90;;;;;;5089411;28;20036;-71
2021/07/16 08:36:19;;;;;;;30.45;11.75;;;18.70;99.90;;;;;;5066004;28;20028;-70
2021/07/16 08:38:46;;;;;;;37.78;12.30;;;18.70;99.90;;;;;;5070773;28;20029;-70
2021/07/16 08:41:11;;;;;;;32.33;12.77;;;18.70;99.90;;;;;;5075823;28;20025;-70
2021/07/16 08:43:40;;;;;;;29.88;12.13;;;18.60;99.90;;;;;;5058371;28;20363;-70
2021/07/16 08:46:08;;;;;;;31.27;12.45;;;18.60;99.90;;;;;;5075580;28;20467;-70
2021/07/16 08:48:34;;;;;;;28.50;12.20;;;18.50;99.90;;;;;;5071431;28;20025;-70
2021/07/16 08:51:01;;;;;;;33.95;12.88;;;18.60;99.90;;;;;;5057783;28;20025;-70
2021/07/16 08:53:34;;;;;;;26.73;11.30;;;18.50;99.90;;;;;;5093315;28;20024;-70
2021/07/16 08:56:00;;;;;;;;;;;18.60;99.90;;;;;;5076823;28;20025;-70
2021/07/16 08:58:25;;;;;;;29.63;11.63;;;18.60;99.90;;;;;;5075950;28;20369;-70
2021/07/16 09:00:51;;;;;;;31.95;11.77;;;18.60;99.90;;;;;;5073484;28;20041;-70
2021/07/16 09:03:17;;;;;;;34.83;12.73;;;18.60;99.90;;;;;;5064790;28;20116;-71
2021/07/16 09:05:44;;;;;;;31.00;10.93;;;18.80;99.90;;;;;;5071097;28;20449;-70
2021/07/16 09:08:19;;;;;;;29.13;11.77;;;19.00;99.90;;;;;;5075515;28;20028;-70
2021/07/16 09:13:25;;;;;;;27.33;9.63;;;19.00;99.90;;;;;;5109968;27;20319;-71
2021/07/16 09:15:56;;;;;;;27.75;10.68;;;19.60;99.90;;;;;;5097377;28;20028;-71
2021/07/16 09:18:25;;;;;;;31.38;11.43;;;19.60;99.90;;;;;;5090805;28;20030;-71
2021/07/16 09:21:08;;;;;;;27.92;11.13;;;19.50;99.90;;;;;;5089993;28;20016;-70
2021/07/16 09:23:38;;;;;;;35.00;10.85;;;19.30;99.90;;;;;;5108734;28;20361;-70
2021/07/16 09:26:14;;;;;;;31.75;10.90;;;19.20;99.90;;;;;;5097889;28;20035;-70
2021/07/16 09:28:45;;;;;;;29.77;11.48;;;19.40;99.90;;;;;;5095299;28;20415;-70
2021/07/16 09:31:17;;;;;;;28.50;11.50;;;19.60;99.90;;;;;;5110852;28;20081;-69
2021/07/16 09:33:49;;;;;;;31.83;10.90;;;19.60;99.90;;;;;;5089723;28;20531;-69
2021/07/16 09:36:24;;;;;;;30.98;11.68;;;19.70;99.90;;;;;;5090274;28;20036;-71
2021/07/16 09:41:57;;;;;;;23.55;10.32;;;19.80;99.90;;;;;;5097143;27;20364;-70
2021/07/16 09:44:35;;;;;;;26.80;11.10;;;20.00;99.90;;;;;;5081848;28;20025;-70
2021/07/16 09:47:17;;;;;;;31.60;10.65;;;20.00;99.90;;;;;;5085722;28;20016;-69
2021/07/16 09:49:47;;;;;;;30.30;11.43;;;19.90;99.90;;;;;;5075903;28;20020;-70
2021/07/16 09:52:16;;;;;;;30.38;12.00;;;20.00;99.90;;;;;;5090321;28;20048;-69
2021/07/16 09:57:49;;;;;;;25.50;11.70;;;19.60;99.90;;;;;;5110504;27;20735;-69
2021/07/16 10:00:23;;;;;;;31.65;11.30;;;19.70;99.90;;;;;;5111289;28;20035;-69
2021/07/16 10:02:51;;;;;;;34.53;11.30;;;19.90;99.90;;;;;;5109311;28;20065;-71
2021/07/16 10:05:17;;;;;;;28.05;10.02;;;19.70;99.90;;;;;;5111312;28;20016;-69
2021/07/16 10:07:45;;;;;;;35.88;10.73;;;19.80;99.90;;;;;;5108035;28;20016;-70
2021/07/16 10:10:21;;;;;;;35.30;10.57;;;20.00;99.90;;;;;;5090575;28;20103;-70
2021/07/16 10:12:48;;;;;;;33.40;11.57;;;20.00;99.90;;;;;;5089961;28;20024;-70
2021/07/16 10:15:16;;;;;;;33.15;10.75;;;19.90;99.90;;;;;;5090349;28;20373;-70
2021/07/16 10:17:42;;;;;;;29.20;11.45;;;20.10;99.90;;;;;;5095818;28;20031;-71
2021/07/16 10:20:12;;;;;;;27.95;11.57;;;20.40;99.90;;;;;;5095472;28;20212;-71
2021/07/16 10:22:39;;;;;;;29.30;10.27;;;20.80;99.90;;;;;;5095811;28;20040;-70
2021/07/16 10:25:07;;;;;;;25.98;10.00;;;21.00;99.90;;;;;;5091155;28;20019;-72
2021/07/16 10:27:33;;;;;;;25.80;9.43;;;21.10;99.90;;;;;;5088083;28;20478;-71
2021/07/16 10:30:09;;;;;;;31.90;10.27;;;21.50;99.90;;;;;;5086978;28;20150;-72
2021/07/16 10:32:51;;;;;;;29.73;9.35;;;21.20;99.90;;;;;;5103371;28;20594;-72
2021/07/16 10:35:20;;;;;;;23.67;8.68;;;21.10;99.90;;;;;;5089674;28;20468;-71
2021/07/16 10:37:47;;;;;;;25.33;8.40;;;20.90;99.90;;;;;;5088584;28;20533;-71
2021/07/16 10:40:37;;;;;;;28.33;8.48;;;20.80;99.90;;;;;;5089670;28;20492;-70
2021/07/16 10:43:04;;;;;;;25.00;8.63;;;20.60;99.90;;;;;;5101623;28;20458;-71
2021/07/16 10:45:33;;;;;;;25.27;7.95;;;20.40;99.90;;;;;;5089508;28;20490;-71
2021/07/16 10:48:17;;;;;;;26.88;9.07;;;20.30;99.90;;;;;;5107854;28;20481;-71
2021/07/16 10:50:45;;;;;;;23.90;8.55;;;20.30;99.90;;;;;;5107803;28;20028;-71
2021/07/16 10:53:16;;;;;;;26.60;8.82;;;20.40;99.90;;;;;;5105856;28;20054;-71
2021/07/16 10:56:01;;;;;;;24.65;8.20;;;20.30;99.90;;;;;;5089126;28;20076;-71
2021/07/16 10:58:31;;;;;;;25.77;8.48;;;20.20;99.90;;;;;;5095890;28;20021;-70
2021/07/16 11:00:59;;;;;;;22.52;8.95;;;20.30;99.90;;;;;;5098010;28;20024;-71
2021/07/16 11:03:43;;;;;;;21.98;8.40;;;20.20;99.90;;;;;;5090404;28;20016;-71
2021/07/16 11:06:11;;;;;;;23.98;8.02;;;20.20;99.90;;;;;;5089168;28;20555;-70
2021/07/16 11:08:42;;;;;;;27.73;8.02;;;20.30;99.90;;;;;;5089101;28;20035;-71
2021/07/16 11:13:54;;;;;;;24.50;8.35;;;20.30;99.90;;;;;;5089848;28;20418;-70
2021/07/16 11:21:57;;;;;;;29.60;9.05;;;20.70;99.90;;;;;;5109834;27;20912;-69
2021/07/16 11:24:25;;;;;;;27.50;9.48;;;20.70;99.90;;;;;;5108154;28;20103;-69
2021/07/16 11:27:10;;;;;;;27.98;9.55;;;20.60;99.90;;;;;;5102410;28;21187;-69
2021/07/16 11:32:20;;;;;;;25.45;8.25;;;20.70;99.90;;;;;;5090552;28;20417;-71
2021/07/16 11:34:54;;;;;;;32.03;9.68;;;20.50;99.90;;;;;;5091077;28;20032;-69
2021/07/16 11:37:32;;;;;;;31.23;8.75;;;20.60;99.90;;;;;;5090260;28;20020;-69
2021/07/16 11:40:07;;;;;;;26.30;8.88;;;20.60;99.90;;;;;;5081743;28;20021;-70
2021/07/16 11:42:35;;;;;;;21.35;8.50;;;20.70;99.90;;;;;;5091065;28;20027;-70
2021/07/16 11:45:02;;;;;;;43.70;9.95;;;20.70;99.90;;;;;;5090404;28;20017;-70
2021/07/16 11:47:31;;;;;;;25.63;8.38;;;21.10;99.90;;;;;;5090521;28;20023;-70
2021/07/16 11:50:00;;;;;;;25.25;8.30;;;21.10;99.90;;;;;;5090162;28;20476;-70
2021/07/16 11:52:30;;;;;;;23.75;8.38;;;21.20;99.90;;;;;;5090480;28;20035;-69
2021/07/16 11:55:14;;;;;;;27.02;8.68;;;21.00;99.90;;;;;;5090772;28;20099;-69
2021/07/16 11:57:51;;;;;;;22.27;8.00;;;21.20;99.90;;;;;;5089295;28;20020;-70
2021/07/16 12:00:19;;;;;;;20.30;8.13;;;21.40;99.90;;;;;;5088328;28;20418;-70
2021/07/16 12:02:45;;;;;;;20.38;8.02;;;21.30;99.90;;;;;;5090588;28;20056;-70
2021/07/16 12:05:12;;;;;;;22.55;8.20;;;21.30;99.90;;;;;;5090648;28;20020;-70
2021/07/16 12:07:40;;;;;;;21.98;8.30;;;21.10;99.90;;;;;;5087514;28;20036;-70
2021/07/16 12:10:11;;;;;;;21.60;7.50;;;21.60;99.90;;;;;;5089452;28;20028;-70
2021/07/16 12:12:37;;;;;;;20.42;7.78;;;21.70;99.90;;;;;;5089674;28;20097;-70
2021/07/16 12:15:06;;;;;;;26.17;7.75;;;22.00;99.90;;;;;;5090429;28;20044;-70
2021/07/16 12:17:36;;;;;;;21.92;7.65;;;22.30;99.90;;;;;;5088422;28;20024;-70
2021/07/16 12:20:04;;;;;;;24.90;7.63;;;22.30;99.90;;;;;;5089540;28;20028;-69
2021/07/16 12:22:33;;;;;;;22.65;7.47;;;22.30;99.90;;;;;;5089376;28;20051;-70
2021/07/16 12:25:01;;;;;;;17.95;6.90;;;22.30;99.90;;;;;;5089356;28;20016;-70
2021/07/16 12:27:26;;;;;;;25.33;8.25;;;22.20;99.90;;;;;;5070918;28;20115;-70
2021/07/16 12:29:56;;;;;;;24.83;7.72;;;22.10;99.90;;;;;;5087353;28;20115;-71
2021/07/16 12:32:44;;;;;;;19.17;7.75;;;21.90;99.90;;;;;;5087276;28;20028;-70
2021/07/16 12:35:22;;;;;;;27.20;8.48;;;21.80;99.90;;;;;;5084304;28;20024;-69
2021/07/16 12:37:50;;;;;;;24.27;8.80;;;21.70;99.90;;;;;;5087563;28;20019;-70
2021/07/16 12:40:21;;;;;;;24.15;7.70;;;21.60;99.90;;;;;;5083932;28;20070;-70
2021/07/16 12:43:08;;;;;;;28.42;8.27;;;21.60;99.90;;;;;;5078340;28;20029;-70
2021/07/16 12:45:37;;;;;;;23.67;8.55;;;21.70;99.90;;;;;;5065555;28;20033;-69
2021/07/16 12:48:16;;;;;;;22.83;7.70;;;21.20;99.90;;;;;;5060778;28;20052;-71
2021/07/16 12:50:42;;;;;;;32.35;8.93;;;21.20;99.90;;;;;;5065219;28;20029;-69
2021/07/16 12:53:10;;;;;;;30.17;9.02;;;21.20;99.90;;;;;;5055966;28;20017;-70